FR-0260 weather

CLOSED Col De La Fenetre Altiport
Saint-Martin-de-Belleville, Rhône Alpes, France

Public forecast

Using degrees Celsius for public forecast. Weather courtesy of forecast.io.

METAR (pilot weather report)

Closest report is Chambéry-Savoie Airport, 30.9 nm (57.2 km) NW. Retrieved 2019/09/15 06:30 UTC (0 seconds ago):

LFLB 150630Z AUTO 16002KT CAVOK 15/15 Q1027

TAF (pilot weather forecast)

Closest forecast is Chambéry-Savoie Airport, 30.9 nm (57.2 km) NW. Retrieved 2019/09/15 06:22 UTC (6 minutes ago):

TAF LFLB 150500Z 1506/1606 VRB04KT CAVOK PROB30 TEMPO 1603/1606 3000 MIFG